createdAt,value
2019-04-05T00:00:33.802Z,4.8
2019-04-05T00:01:45.996Z,5.1
2019-04-05T00:02:58.204Z,4.7
2019-04-05T00:04:10.398Z,5.1
2019-04-05T00:05:22.577Z,4.7
2019-04-05T00:06:34.933Z,4.5
2019-04-05T00:07:47.011Z,4.8
2019-04-05T00:08:59.323Z,4.5
2019-04-05T00:10:11.507Z,4.9
2019-04-05T00:12:35.901Z,5.1
2019-04-05T00:13:48.087Z,4.7
2019-04-05T00:15:00.287Z,4.6
2019-04-05T00:17:24.698Z,5
2019-04-05T00:18:36.087Z,5
2019-04-05T00:19:49.062Z,5
2019-04-05T00:21:01.264Z,5
2019-04-05T00:22:13.451Z,5.1
2019-04-05T00:24:37.845Z,5.1
2019-04-05T00:25:50.065Z,4.9
2019-04-05T00:27:02.238Z,5
2019-04-05T00:28:14.431Z,4.8
2019-04-05T00:29:26.062Z,4.6
2019-04-05T00:30:38.856Z,4.8
2019-04-05T00:31:51.025Z,4.8
2019-04-05T00:33:03.220Z,4.8
2019-04-05T00:34:15.424Z,5.3
2019-04-05T00:35:27.607Z,4.8
2019-04-05T00:36:39.805Z,4.9
2019-04-05T00:37:51.997Z,5
2019-04-05T00:39:04.928Z,5.1
2019-04-05T00:40:16.000Z,5.1
2019-04-05T00:41:28.585Z,5.1
2019-04-05T00:42:40.790Z,5
2019-04-05T00:43:52.967Z,5
2019-04-05T00:45:05.167Z,4.9
2019-04-05T00:46:17.000Z,5.3
2019-04-05T00:47:30.060Z,4.6
2019-04-05T00:48:41.756Z,4.9
2019-04-05T00:49:53.953Z,4.9
2019-04-05T00:51:06.149Z,4.8
2019-04-05T00:52:18.344Z,5.1
2019-04-05T00:53:30.000Z,4.8
2019-04-05T00:54:42.754Z,5.1
2019-04-05T00:55:54.929Z,5
2019-04-05T00:57:07.131Z,5
2019-04-05T00:58:19.314Z,5.3
2019-04-05T00:59:31.519Z,4.9
2019-04-05T01:00:43.713Z,5
2019-04-05T01:01:55.907Z,5
2019-04-05T01:03:08.101Z,5.4
2019-04-05T01:04:20.293Z,4.9
2019-04-05T01:05:32.487Z,4.8
2019-04-05T01:06:44.703Z,5
2019-04-05T01:07:56.874Z,5
2019-04-05T01:09:09.007Z,5
2019-04-05T01:11:33.046Z,4.8
2019-04-05T01:12:45.655Z,4.9
2019-04-05T01:13:57.851Z,4.7
2019-04-05T01:15:10.051Z,5.2
2019-04-05T01:16:22.245Z,5.3
2019-04-05T01:18:46.704Z,4.8
2019-04-05T01:19:58.840Z,5.1
2019-04-05T01:21:11.021Z,4.5
2019-04-05T01:22:23.218Z,5.3
2019-04-05T01:23:35.004Z,5
2019-04-05T01:24:47.610Z,5.1
2019-04-05T01:25:59.806Z,5.2
2019-04-05T01:27:12.027Z,5.2
2019-04-05T01:28:24.195Z,5.3
2019-04-05T01:29:36.396Z,5.1
2019-04-05T01:30:48.587Z,5.1
2019-04-05T01:32:00.789Z,5.3
2019-04-05T01:33:12.979Z,5.1
2019-04-05T01:34:25.176Z,5.3
2019-04-05T01:35:37.370Z,5.2
2019-04-05T01:36:49.566Z,5
2019-04-05T01:38:01.758Z,5
2019-04-05T01:39:13.959Z,5.4
2019-04-05T01:40:26.151Z,5.1
2019-04-05T01:41:38.353Z,5.5
2019-04-05T01:42:50.549Z,5
2019-04-05T01:44:02.744Z,5.1
2019-04-05T01:45:14.930Z,5.5
2019-04-05T01:46:27.129Z,5
2019-04-05T01:47:39.367Z,5.4
2019-04-05T01:48:51.005Z,5
2019-04-05T01:50:03.715Z,5.1
2019-04-05T01:51:15.925Z,5.5
2019-04-05T01:52:28.103Z,5.4
2019-04-05T01:53:40.296Z,4.9
2019-04-05T01:54:52.049Z,5
2019-04-05T01:56:04.710Z,5.2
2019-04-05T01:57:16.885Z,5.2
2019-04-05T01:58:29.079Z,5.2
2019-04-05T01:59:41.280Z,5.1
2019-04-05T02:00:53.468Z,5.3
2019-04-05T02:02:05.668Z,5.7
2019-04-05T02:03:17.955Z,5.5
2019-04-05T02:04:30.068Z,4.9
2019-04-05T02:05:42.000Z,4.9
2019-04-05T02:06:54.457Z,5.1
2019-04-05T02:08:06.650Z,5.3
2019-04-05T02:09:18.850Z,5.1
2019-04-05T02:10:31.040Z,5.3
2019-04-05T02:11:43.237Z,5.3
2019-04-05T02:12:55.445Z,5.4
2019-04-05T02:14:07.627Z,5.7
2019-04-05T02:15:19.842Z,5.3
2019-04-05T02:16:32.019Z,5.1
2019-04-05T02:17:44.021Z,5.2
2019-04-05T02:20:08.609Z,5
2019-04-05T02:21:20.801Z,5.2
2019-04-05T02:22:32.998Z,5.4
2019-04-05T02:23:45.186Z,5.5
2019-04-05T02:24:57.382Z,5.3
2019-04-05T02:26:09.605Z,5.5
2019-04-05T02:27:21.000Z,5.4
2019-04-05T02:28:33.968Z,5
2019-04-05T02:29:46.016Z,5.5
2019-04-05T02:30:58.358Z,5.2
2019-04-05T02:32:10.567Z,5
2019-04-05T02:33:22.753Z,5.1
2019-04-05T02:34:34.000Z,5.3
2019-04-05T02:35:47.144Z,5.3
2019-04-05T02:36:59.348Z,5.3
2019-04-05T02:38:11.528Z,5.4
2019-04-05T02:39:23.073Z,5.6
2019-04-05T02:40:35.923Z,5.4
2019-04-05T02:41:48.012Z,5.4
2019-04-05T02:43:00.326Z,5.5
2019-04-05T02:44:12.509Z,4.8
2019-04-05T02:45:24.718Z,5.8
2019-04-05T02:46:36.000Z,5.1
2019-04-05T02:47:49.099Z,5.5
2019-04-05T02:49:01.290Z,5.2
2019-04-05T02:50:13.489Z,5.4
2019-04-05T02:51:25.712Z,5.2
2019-04-05T02:52:37.087Z,5.4
2019-04-05T02:53:50.068Z,5.1
2019-04-05T02:55:02.265Z,5.4
2019-04-05T02:56:14.000Z,5.1
2019-04-05T02:57:26.658Z,5.8
2019-04-05T02:58:38.863Z,5.5
2019-04-05T03:01:03.000Z,5.2
2019-04-05T03:02:15.444Z,5.5
2019-04-05T03:03:27.063Z,5.3
2019-04-05T03:04:39.832Z,5.4
2019-04-05T03:05:52.024Z,5.4
2019-04-05T03:07:04.022Z,5
2019-04-05T03:08:16.421Z,5.2
2019-04-05T03:09:28.062Z,5.3
2019-04-05T03:10:40.812Z,5.5
2019-04-05T03:13:05.200Z,4.7
2019-04-05T03:14:17.039Z,5.5
2019-04-05T03:15:29.587Z,5.1
2019-04-05T03:16:41.781Z,5
2019-04-05T03:17:53.979Z,5.1
2019-04-05T03:19:06.181Z,5.1
2019-04-05T03:20:18.374Z,5.1
2019-04-05T03:21:30.567Z,5.6
2019-04-05T03:22:42.769Z,5.5
2019-04-05T03:23:54.965Z,5.1
2019-04-05T03:25:07.000Z,5.5
2019-04-05T03:26:19.003Z,5.8
2019-04-05T03:28:43.735Z,5.5
2019-04-05T03:29:55.933Z,5.8
2019-04-05T03:31:08.000Z,5.4
2019-04-05T03:32:20.320Z,5.1
2019-04-05T03:33:32.530Z,5.5
2019-04-05T03:34:44.716Z,5.8
2019-04-05T03:35:56.917Z,5.1
2019-04-05T03:37:09.011Z,5.1
2019-04-05T03:38:21.298Z,5
2019-04-05T03:39:33.493Z,5.3
2019-04-05T03:40:45.704Z,5.4
2019-04-05T03:41:57.989Z,5
2019-04-05T03:43:10.084Z,5.3
2019-04-05T03:44:22.027Z,5.2
2019-04-05T03:45:34.476Z,5.2
2019-04-05T03:46:46.668Z,5.6
2019-04-05T03:47:58.861Z,5.2
2019-04-05T03:49:11.057Z,5.6
2019-04-05T03:50:23.248Z,5.2
2019-04-05T03:51:35.045Z,5.5
2019-04-05T03:52:47.648Z,5.2
2019-04-05T03:55:12.036Z,5
2019-04-05T03:56:24.234Z,5.4
2019-04-05T03:57:36.042Z,5.5
2019-04-05T03:58:48.623Z,5.1
2019-04-05T04:01:13.008Z,5.5
2019-04-05T04:02:25.214Z,5.1
2019-04-05T04:03:37.405Z,5.5
2019-04-05T04:04:49.000Z,5.6
2019-04-05T04:06:01.796Z,5.2
2019-04-05T04:07:14.010Z,5.4
2019-04-05T04:08:26.185Z,5.7
2019-04-05T04:09:38.037Z,5.7
2019-04-05T04:10:50.570Z,5.5
2019-04-05T04:12:02.766Z,5.1
2019-04-05T04:13:14.095Z,5.2
2019-04-05T04:14:27.151Z,5.5
2019-04-05T04:15:39.354Z,5.2
2019-04-05T04:16:51.544Z,5.3
2019-04-05T04:18:03.073Z,5.6
2019-04-05T04:19:15.009Z,5.8
2019-04-05T04:20:28.011Z,5.5
2019-04-05T04:21:40.032Z,5.5
2019-04-05T04:22:52.509Z,5.4
2019-04-05T04:24:04.798Z,5.7
2019-04-05T04:25:16.895Z,5.8
2019-04-05T04:26:29.092Z,5.9
2019-04-05T04:27:41.298Z,5.8
2019-04-05T04:28:53.474Z,5.9
2019-04-05T04:30:05.691Z,5.6
2019-04-05T04:31:17.086Z,5.7
2019-04-05T04:32:30.059Z,5.5
2019-04-05T04:33:42.027Z,5.2
2019-04-05T04:34:54.455Z,5.4
2019-04-05T04:36:06.644Z,5.5
2019-04-05T04:38:31.026Z,6.2
2019-04-05T04:39:43.227Z,6
2019-04-05T04:40:55.417Z,5.6
2019-04-05T04:42:07.611Z,5.3
2019-04-05T04:43:19.804Z,5.9
2019-04-05T04:44:32.001Z,5.7
2019-04-05T04:45:44.190Z,5.4
2019-04-05T04:46:56.386Z,5.8
2019-04-05T04:48:08.576Z,5.5
2019-04-05T04:49:20.775Z,5.9
2019-04-05T04:50:32.978Z,5.7
2019-04-05T04:51:45.161Z,5.8
2019-04-05T04:52:57.348Z,5.9
2019-04-05T04:54:09.566Z,6.1
2019-04-05T04:55:21.074Z,5.5
2019-04-05T04:56:34.241Z,5.3
2019-04-05T04:57:46.134Z,5.8
2019-04-05T04:58:58.323Z,5.9
2019-04-05T05:00:10.509Z,6.2
2019-04-05T05:01:22.715Z,5.8
2019-04-05T05:02:34.902Z,5.8
2019-04-05T05:03:47.096Z,5.9
2019-04-05T05:04:59.315Z,5.5
2019-04-05T05:06:11.000Z,5.7
2019-04-05T05:07:23.668Z,5.8
2019-04-05T05:09:48.062Z,6
2019-04-05T05:11:00.260Z,5.4
2019-04-05T05:12:12.448Z,5.8
2019-04-05T05:13:24.064Z,5.7
2019-04-05T05:14:36.837Z,6
2019-04-05T05:15:49.003Z,6
2019-04-05T05:17:01.225Z,5.6
2019-04-05T05:18:13.422Z,6
2019-04-05T05:19:25.608Z,5.9
2019-04-05T05:20:37.805Z,5.3
2019-04-05T05:21:50.003Z,6.1
2019-04-05T05:23:02.191Z,6.5
2019-04-05T05:25:26.591Z,5.7
2019-04-05T05:26:38.773Z,5.9
2019-04-05T05:27:50.000Z,6
2019-04-05T05:29:03.163Z,5.7
2019-04-05T05:30:15.351Z,5.9
2019-04-05T05:31:27.550Z,6.1
2019-04-05T05:32:39.765Z,5.9
2019-04-05T05:33:51.093Z,5.9
2019-04-05T05:35:04.000Z,6
2019-04-05T05:36:16.324Z,6.1
2019-04-05T05:37:28.516Z,6.1
2019-04-05T05:38:40.706Z,6.1
2019-04-05T05:39:52.910Z,5.9
2019-04-05T05:41:05.099Z,6.1
2019-04-05T05:42:17.000Z,6.3
2019-04-05T05:43:29.490Z,6.2
2019-04-05T05:44:41.682Z,6.2
2019-04-05T05:45:53.868Z,5.8
2019-04-05T05:47:06.059Z,6.1
2019-04-05T05:48:18.258Z,6.2
2019-04-05T05:49:30.000Z,6.2
2019-04-05T05:50:42.645Z,6
2019-04-05T05:51:54.839Z,6.1
2019-04-05T05:53:07.038Z,6
2019-04-05T05:54:19.223Z,6.2
2019-04-05T05:56:43.000Z,5.8
2019-04-05T05:57:55.809Z,6
2019-04-05T05:59:08.025Z,5.8
2019-04-05T06:00:20.205Z,6.2
2019-04-05T06:01:32.392Z,5.9
2019-04-05T06:02:44.000Z,6.5
2019-04-05T06:03:56.776Z,6.4
2019-04-05T06:05:08.965Z,6.1
2019-04-05T06:06:21.162Z,5.5
2019-04-05T06:07:33.356Z,6.4
2019-04-05T06:08:45.554Z,5.7
2019-04-05T06:09:57.740Z,6.1
2019-04-05T06:11:09.931Z,6.2
2019-04-05T06:12:22.145Z,6
2019-04-05T06:13:34.335Z,6.3
2019-04-05T06:14:46.051Z,5.9
2019-04-05T06:15:58.708Z,5.9
2019-04-05T06:17:10.908Z,6.7
2019-04-05T06:18:23.000Z,6.4
2019-04-05T06:19:35.293Z,6.2
2019-04-05T06:20:47.490Z,6
2019-04-05T06:21:59.794Z,5.7
2019-04-05T06:23:11.896Z,6.7
2019-04-05T06:24:24.066Z,6.5
2019-04-05T06:25:36.262Z,6.2
2019-04-05T06:26:48.475Z,5.8
2019-04-05T06:28:00.649Z,6
2019-04-05T06:29:12.838Z,6
2019-04-05T06:30:25.025Z,6.4
2019-04-05T06:31:37.223Z,6
2019-04-05T06:32:49.418Z,6.5
2019-04-05T06:34:01.609Z,5.9
2019-04-05T06:35:13.806Z,6.4
2019-04-05T06:36:25.997Z,6.2
2019-04-05T06:38:50.384Z,6
2019-04-05T06:40:02.058Z,6
2019-04-05T06:41:14.774Z,6
2019-04-05T06:42:26.967Z,6.2
2019-04-05T06:43:39.162Z,5.9
2019-04-05T06:44:51.355Z,5.7
2019-04-05T06:46:03.000Z,6.5
2019-04-05T06:47:15.745Z,6
2019-04-05T06:48:27.939Z,5.7
2019-04-05T06:49:40.127Z,6
2019-04-05T06:50:52.328Z,6.1
2019-04-05T06:52:04.520Z,6.1
2019-04-05T06:53:16.715Z,7.2
2019-04-05T06:54:28.906Z,6.4
2019-04-05T06:55:41.000Z,6.1
2019-04-05T06:56:53.287Z,6.1
2019-04-05T06:58:05.485Z,5.9
2019-04-05T06:59:17.676Z,6.1
2019-04-05T07:00:29.876Z,7
2019-04-05T07:01:42.069Z,7.7
2019-04-05T07:02:54.259Z,5.3
2019-04-05T07:05:18.647Z,10.3
2019-04-05T07:06:30.844Z,7.8
2019-04-05T07:07:43.036Z,7
2019-04-05T07:08:55.000Z,6.4
2019-04-05T07:10:07.042Z,7.9
2019-04-05T07:11:19.616Z,7
2019-04-05T07:12:31.804Z,5.9
2019-04-05T07:13:44.003Z,7.7
2019-04-05T07:14:56.194Z,7.3
2019-04-05T07:16:08.387Z,7.6
2019-04-05T07:17:20.577Z,6.1
2019-04-05T07:18:32.792Z,7.4
2019-04-05T07:19:44.000Z,6.8
2019-04-05T07:20:57.159Z,6.2
2019-04-05T07:22:09.370Z,8.2
2019-04-05T07:23:21.545Z,7.4
2019-04-05T07:24:33.736Z,6.8
2019-04-05T07:25:45.938Z,9
2019-04-05T07:26:58.126Z,8.4
2019-04-05T07:28:10.315Z,8.8
2019-04-05T07:29:22.517Z,6.5
2019-04-05T07:31:46.090Z,8.3
2019-04-05T07:32:59.095Z,8.9
2019-04-05T07:34:11.287Z,10.1
2019-04-05T07:35:23.494Z,9.4
2019-04-05T07:36:35.676Z,8.9
2019-04-05T07:37:47.866Z,11.3
2019-04-05T07:39:00.057Z,8.2
2019-04-05T07:40:12.381Z,8.6
2019-04-05T07:41:24.445Z,6.5
2019-04-05T07:42:36.645Z,9.2
2019-04-05T07:43:48.830Z,7.9
2019-04-05T07:45:01.045Z,10.6
2019-04-05T07:46:13.216Z,7.1
2019-04-05T07:47:25.416Z,7.2
2019-04-05T07:48:37.611Z,7.8
2019-04-05T07:49:49.806Z,11.6
2019-04-05T07:51:02.000Z,11.4
2019-04-05T07:52:14.190Z,9.6
2019-04-05T07:53:26.388Z,12.2
2019-04-05T07:54:38.578Z,10.7
2019-04-05T07:55:50.000Z,10.5
2019-04-05T07:57:02.970Z,9.4
2019-04-05T07:58:15.157Z,11.6
2019-04-05T07:59:27.407Z,13.3
2019-04-05T08:00:39.539Z,9.9
2019-04-05T08:01:51.753Z,14.4
2019-04-05T08:03:03.000Z,11.8
2019-04-05T08:04:16.131Z,12.1
2019-04-05T08:05:28.317Z,11
2019-04-05T08:06:40.554Z,11.1
2019-04-05T08:07:52.000Z,13
2019-04-05T08:09:04.904Z,12.8
2019-04-05T08:10:17.093Z,12.2
2019-04-05T08:11:29.283Z,10.4
2019-04-05T08:13:53.000Z,10.6
2019-04-05T08:15:05.087Z,11.8
2019-04-05T08:16:18.006Z,13.5
2019-04-05T08:17:30.248Z,13.3
2019-04-05T08:18:42.453Z,15.2
2019-04-05T08:19:54.000Z,13.6
2019-04-05T08:21:06.000Z,13
2019-04-05T08:22:19.028Z,12.2
2019-04-05T08:24:43.416Z,11.7
2019-04-05T08:25:55.606Z,11
2019-04-05T08:27:07.080Z,14.9
2019-04-05T08:28:19.000Z,13.5
2019-04-05T08:29:32.186Z,9.9
2019-04-05T08:30:44.379Z,11.8
2019-04-05T08:31:56.000Z,8.3
2019-04-05T08:33:08.769Z,11.2
2019-04-05T08:34:21.079Z,11.6
2019-04-05T08:35:33.001Z,9.9
2019-04-05T08:36:45.358Z,14.7
2019-04-05T08:37:57.539Z,12.1
2019-04-05T08:39:09.728Z,11.9
2019-04-05T08:40:21.093Z,12.7
2019-04-05T08:41:34.127Z,10
2019-04-05T08:42:46.031Z,12.3
2019-04-05T08:43:58.051Z,12.6
2019-04-05T08:45:10.698Z,12.2
2019-04-05T08:46:22.896Z,13.1
2019-04-05T08:47:35.105Z,13.1
2019-04-05T08:48:47.283Z,14.2
2019-04-05T08:49:59.477Z,15.4
2019-04-05T08:51:11.673Z,16.2
2019-04-05T08:52:23.870Z,12.9
2019-04-05T08:53:36.054Z,12
2019-04-05T08:54:48.246Z,12
2019-04-05T08:56:00.444Z,13.2
2019-04-05T08:58:24.829Z,13.9
2019-04-05T09:00:49.221Z,13.3
2019-04-05T09:02:01.418Z,13.1
2019-04-05T09:03:13.603Z,13.7
2019-04-05T09:04:26.875Z,16.7
2019-04-05T09:06:50.192Z,13.9
2019-04-05T09:08:02.381Z,13.6
2019-04-05T09:09:14.574Z,11.7
2019-04-05T09:10:26.762Z,13.5
2019-04-05T09:11:38.962Z,10
2019-04-05T09:12:51.146Z,13.3
2019-04-05T09:14:03.349Z,12.9
2019-04-05T09:15:15.545Z,12.8
2019-04-05T09:16:27.739Z,12.9
2019-04-05T09:17:39.925Z,12.1
2019-04-05T09:18:52.120Z,13.4
2019-04-05T09:20:04.314Z,14
2019-04-05T09:21:16.512Z,11.2
2019-04-05T09:22:28.692Z,14.3
2019-04-05T09:23:40.089Z,12.3
2019-04-05T09:24:53.086Z,13.6
2019-04-05T09:26:05.276Z,12.6
2019-04-05T09:27:17.468Z,11.9
2019-04-05T09:28:29.067Z,14.3
2019-04-05T09:29:41.869Z,14.9
2019-04-05T09:30:54.050Z,15.3
2019-04-05T09:32:06.000Z,13.9
2019-04-05T09:33:18.440Z,12.2
2019-04-05T09:34:30.763Z,12.5
2019-04-05T09:35:42.973Z,14.3
2019-04-05T09:36:55.019Z,12
2019-04-05T09:38:07.217Z,11.5
2019-04-05T09:39:19.408Z,12.9
2019-04-05T09:40:31.600Z,12.4
2019-04-05T09:41:43.792Z,14.3
2019-04-05T09:42:55.099Z,13.5
2019-04-05T09:44:08.000Z,13.8
2019-04-05T09:45:20.394Z,14.7
2019-04-05T09:46:32.571Z,11.1
2019-04-05T09:48:56.961Z,12
2019-04-05T09:50:09.014Z,13.3
2019-04-05T09:51:21.341Z,13.1
2019-04-05T09:52:33.538Z,12.7
2019-04-05T09:53:45.780Z,13.5
2019-04-05T09:54:57.917Z,13.9
2019-04-05T09:56:10.116Z,15
2019-04-05T09:57:22.338Z,12.6
2019-04-05T09:58:34.506Z,14.7
2019-04-05T09:59:46.069Z,15.3
2019-04-05T10:02:11.000Z,13.5
2019-04-05T10:03:23.276Z,14
2019-04-05T10:04:35.470Z,11.5
2019-04-05T10:05:47.677Z,13.9
2019-04-05T10:06:59.851Z,11
2019-04-05T10:08:12.000Z,13.1
2019-04-05T10:09:24.000Z,11.4
2019-04-05T10:10:36.443Z,14.2
2019-04-05T10:11:48.628Z,14
2019-04-05T10:13:00.823Z,12.7
2019-04-05T10:14:13.019Z,10.6
2019-04-05T10:15:25.222Z,14.2
2019-04-05T10:16:37.398Z,9.1
2019-04-05T10:17:49.602Z,12.6
2019-04-05T10:19:01.789Z,10.4
2019-04-05T10:20:13.000Z,13.4
2019-04-05T10:21:26.195Z,13.7
2019-04-05T10:22:38.372Z,9.9
2019-04-05T10:23:50.572Z,12.4
2019-04-05T10:25:02.761Z,11.7
2019-04-05T10:26:14.951Z,11.3
2019-04-05T10:27:27.239Z,14.6
2019-04-05T10:28:39.340Z,12.1
2019-04-05T10:29:51.539Z,12.4
2019-04-05T10:31:03.000Z,17
2019-04-05T10:32:15.000Z,12.2
2019-04-05T10:33:28.010Z,13.5
2019-04-05T10:34:40.308Z,12.6
2019-04-05T10:35:52.497Z,13.1
2019-04-05T10:37:04.690Z,12.7
2019-04-05T10:38:16.000Z,13.8
2019-04-05T10:39:29.083Z,13.8
2019-04-05T10:41:53.045Z,12.7
2019-04-05T10:43:05.704Z,11.5
2019-04-05T10:44:17.086Z,10.8
2019-04-05T10:45:30.040Z,12.2
2019-04-05T10:46:42.041Z,12
2019-04-05T10:47:54.433Z,13.6
2019-04-05T10:49:06.618Z,15.9
2019-04-05T10:50:18.819Z,12.3
2019-04-05T10:51:31.009Z,11.2
2019-04-05T10:52:43.207Z,12.9
2019-04-05T10:53:55.398Z,10
2019-04-05T10:56:19.780Z,11.6
2019-04-05T10:57:31.980Z,8.5
2019-04-05T10:58:44.185Z,11.3
2019-04-05T10:59:56.362Z,9.9
2019-04-05T11:01:08.558Z,10.4
2019-04-05T11:02:20.759Z,10.6
2019-04-05T11:03:32.094Z,11.9
2019-04-05T11:04:45.136Z,11.3
2019-04-05T11:05:57.327Z,11.2
2019-04-05T11:07:09.530Z,10.6
2019-04-05T11:08:21.000Z,12.1
2019-04-05T11:09:33.913Z,11.6
2019-04-05T11:10:46.099Z,10.6
2019-04-05T11:11:58.444Z,11.2
2019-04-05T11:13:10.992Z,11.9
2019-04-05T11:14:22.822Z,8.9
2019-04-05T11:15:35.000Z,10.9
2019-04-05T11:16:47.207Z,11
2019-04-05T11:17:59.437Z,9.9
2019-04-05T11:20:23.079Z,11
2019-04-05T11:21:35.981Z,12
2019-04-05T11:22:48.017Z,11.7
2019-04-05T11:24:00.373Z,11.9
2019-04-05T11:25:12.571Z,9.3
2019-04-05T11:26:24.759Z,12.2
2019-04-05T11:27:36.957Z,9.9
2019-04-05T11:28:49.149Z,11.7
2019-04-05T11:30:01.341Z,12.1
2019-04-05T11:31:13.539Z,10
2019-04-05T11:32:25.723Z,12.2
2019-04-05T11:33:37.913Z,12.9
2019-04-05T11:34:50.111Z,10.6
2019-04-05T11:36:02.327Z,11.1
2019-04-05T11:37:14.052Z,12.3
2019-04-05T11:38:26.692Z,15.7
2019-04-05T11:39:38.881Z,10.4
2019-04-05T11:40:51.080Z,11.1
2019-04-05T11:42:03.272Z,13.3
2019-04-05T11:43:15.464Z,11.5
2019-04-05T11:44:27.000Z,9.4
2019-04-05T11:45:39.853Z,10.9
2019-04-05T11:46:52.004Z,9.5
2019-04-05T11:48:04.326Z,9.3
2019-04-05T11:50:28.630Z,12.3
2019-04-05T11:51:40.827Z,9.4
2019-04-05T11:52:53.000Z,9.5
2019-04-05T11:54:05.209Z,9.6
2019-04-05T11:55:17.405Z,9.6
2019-04-05T11:56:29.596Z,10.2
2019-04-05T11:57:41.000Z,10.4
2019-04-05T11:58:53.976Z,9.9
2019-04-05T12:00:06.179Z,7.9
2019-04-05T12:01:18.037Z,8.9
2019-04-05T12:02:30.568Z,10.1
2019-04-05T12:03:42.760Z,12.4
2019-04-05T12:04:54.000Z,9.9
2019-04-05T12:06:07.139Z,11.2
2019-04-05T12:07:19.333Z,10.5
2019-04-05T12:08:31.526Z,9.4
2019-04-05T12:09:43.722Z,11.5
2019-04-05T12:10:55.919Z,11.2
2019-04-05T12:12:08.110Z,9.3
2019-04-05T12:13:20.307Z,9.2
2019-04-05T12:15:44.686Z,10.6
2019-04-05T12:16:56.885Z,10.3
2019-04-05T12:18:09.076Z,10.8
2019-04-05T12:19:21.027Z,9.7
2019-04-05T12:20:33.000Z,12.7
2019-04-05T12:21:45.650Z,10.4
2019-04-05T12:22:57.935Z,9.8
2019-04-05T12:24:10.043Z,12.7
2019-04-05T12:25:22.255Z,11.8
2019-04-05T12:27:46.622Z,9.3
2019-04-05T12:28:58.816Z,11.1
2019-04-05T12:30:11.010Z,8.8
2019-04-05T12:31:23.208Z,8.7
2019-04-05T12:32:35.399Z,10.7
2019-04-05T12:33:47.678Z,10.7
2019-04-05T12:34:59.786Z,9.7
2019-04-05T12:36:11.985Z,10.1
2019-04-05T12:38:36.359Z,9.7
2019-04-05T12:39:48.552Z,7.7
2019-04-05T12:41:00.746Z,11
2019-04-05T12:42:12.936Z,10.5
2019-04-05T12:43:25.014Z,10.3
2019-04-05T12:44:37.000Z,10.6
2019-04-05T12:45:49.518Z,10
2019-04-05T12:47:01.711Z,9.1
2019-04-05T12:48:13.000Z,10.5
2019-04-05T12:50:38.306Z,9
2019-04-05T12:51:50.494Z,8.8
2019-04-05T12:53:02.689Z,9.2
2019-04-05T12:54:14.872Z,10.5
2019-04-05T12:55:27.000Z,10.2
2019-04-05T12:56:39.264Z,11
2019-04-05T12:57:51.459Z,10.5
2019-04-05T12:59:03.643Z,9.3
2019-04-05T13:00:15.866Z,8.7
2019-04-05T13:01:28.035Z,9.2
2019-04-05T13:02:40.235Z,11.6
2019-04-05T13:03:52.423Z,8.4
2019-04-05T13:05:04.617Z,11
2019-04-05T13:06:16.806Z,10.3
2019-04-05T13:07:28.999Z,9.4
2019-04-05T13:08:41.000Z,11.8
2019-04-05T13:09:53.384Z,10.2
2019-04-05T13:11:05.058Z,9.1
2019-04-05T13:12:17.775Z,10
2019-04-05T13:13:29.969Z,9.3
2019-04-05T13:14:42.168Z,11.3
2019-04-05T13:15:54.360Z,9.2
2019-04-05T13:17:06.054Z,8.4
2019-04-05T13:18:18.745Z,8.9
2019-04-05T13:19:31.131Z,9.3
2019-04-05T13:20:43.000Z,9.5
2019-04-05T13:21:55.319Z,9.4
2019-04-05T13:23:07.793Z,8.8
2019-04-05T13:24:19.000Z,9.9
2019-04-05T13:25:31.905Z,8.9
2019-04-05T13:26:44.138Z,9.8
2019-04-05T13:27:56.283Z,10.9
2019-04-05T13:29:08.000Z,10
2019-04-05T13:30:20.705Z,9.6
2019-04-05T13:31:32.000Z,9.7
2019-04-05T13:32:45.062Z,8.2
2019-04-05T13:33:57.025Z,10.4
2019-04-05T13:35:09.447Z,9.2
2019-04-05T13:36:21.682Z,10
2019-04-05T13:37:33.876Z,9.3
2019-04-05T13:38:46.031Z,11
2019-04-05T13:39:58.219Z,9.2
2019-04-05T13:41:10.417Z,9.1
2019-04-05T13:42:22.607Z,8.7
2019-04-05T13:43:34.000Z,10.6
2019-04-05T13:44:46.000Z,11
2019-04-05T13:45:59.189Z,8.9
2019-04-05T13:47:11.386Z,11.3
2019-04-05T13:48:23.576Z,8.8
2019-04-05T13:49:35.771Z,8
2019-04-05T13:50:47.097Z,9.4
2019-04-05T13:52:00.167Z,8.8
2019-04-05T13:53:12.000Z,9.4
2019-04-05T13:54:24.558Z,7.9
2019-04-05T13:55:36.750Z,9.2
2019-04-05T13:56:48.000Z,8.7
2019-04-05T13:58:01.143Z,9.4
2019-04-05T13:59:13.333Z,10.1
2019-04-05T14:00:25.000Z,8.8
2019-04-05T14:01:37.715Z,8.9
2019-04-05T14:02:49.909Z,8.8
2019-04-05T14:04:02.104Z,8.6
2019-04-05T14:05:14.304Z,9.4
2019-04-05T14:06:26.051Z,9.6
2019-04-05T14:07:38.696Z,8.2
2019-04-05T14:08:50.000Z,11
2019-04-05T14:10:03.088Z,8
2019-04-05T14:11:15.028Z,8.6
2019-04-05T14:12:27.481Z,7.9
2019-04-05T14:13:39.673Z,10.3
2019-04-05T14:14:51.000Z,9.7
2019-04-05T14:16:04.055Z,7.9
2019-04-05T14:17:16.256Z,8.3
2019-04-05T14:18:28.457Z,9.9
2019-04-05T14:20:52.842Z,10.1
2019-04-05T14:22:05.004Z,9.7
2019-04-05T14:23:17.000Z,9.7
2019-04-05T14:24:29.423Z,9.4
2019-04-05T14:25:41.616Z,7.7
2019-04-05T14:26:53.081Z,9.2
2019-04-05T14:28:06.007Z,9.3
2019-04-05T14:29:18.208Z,9.7
2019-04-05T14:30:30.416Z,7.4
2019-04-05T14:31:42.596Z,7.9
2019-04-05T14:32:54.811Z,8.4
2019-04-05T14:34:06.994Z,7.8
2019-04-05T14:35:19.245Z,8
2019-04-05T14:36:31.000Z,9.1
2019-04-05T14:37:43.601Z,8
2019-04-05T14:38:55.768Z,8.9
2019-04-05T14:40:07.966Z,8
2019-04-05T14:41:20.157Z,8
2019-04-05T14:42:32.352Z,9.2
2019-04-05T14:43:43.000Z,9.1
2019-04-05T14:44:56.750Z,8.8
2019-04-05T14:46:08.943Z,8.3
2019-04-05T14:47:21.129Z,8.8
2019-04-05T14:48:33.329Z,9.7
2019-04-05T14:49:45.521Z,8
2019-04-05T14:50:57.719Z,8.1
2019-04-05T14:52:09.919Z,8.6
2019-04-05T14:53:22.109Z,8.4
2019-04-05T14:54:34.306Z,8.6
2019-04-05T14:55:46.502Z,8.4
2019-04-05T14:56:58.700Z,8.2
2019-04-05T14:58:10.894Z,8.5
2019-04-05T14:59:23.090Z,8.4
2019-04-05T15:00:35.282Z,9.1
2019-04-05T15:01:47.472Z,8.8
2019-04-05T15:02:59.677Z,8
2019-04-05T15:04:11.864Z,8.8
2019-04-05T15:05:24.000Z,8.2
2019-04-05T15:06:36.288Z,8.5
2019-04-05T15:07:48.454Z,7.8
2019-04-05T15:09:00.649Z,8.8
2019-04-05T15:10:12.838Z,7.6
2019-04-05T15:11:25.054Z,8.3
2019-04-05T15:12:37.232Z,11.9
2019-04-05T15:15:01.619Z,12.8
2019-04-05T15:16:13.819Z,11.9
2019-04-05T15:17:26.010Z,9
2019-04-05T15:18:38.210Z,12.3
2019-04-05T15:21:02.616Z,10.9
2019-04-05T15:22:14.800Z,14.2
2019-04-05T15:23:26.985Z,8.5
2019-04-05T15:24:39.183Z,12.8
2019-04-05T15:25:51.379Z,9.2
2019-04-05T15:27:03.597Z,13.5
2019-04-05T15:28:15.077Z,9
2019-04-05T15:29:27.979Z,11.1
2019-04-05T15:30:40.171Z,8.5
2019-04-05T15:31:52.351Z,11.2
2019-04-05T15:33:04.000Z,9.5
2019-04-05T15:34:16.000Z,13
2019-04-05T15:35:28.936Z,11.7
2019-04-05T15:36:41.135Z,12.1
2019-04-05T15:37:53.329Z,11.5
2019-04-05T15:39:05.525Z,9.6
2019-04-05T15:40:17.721Z,9.6
2019-04-05T15:41:29.914Z,11.6
2019-04-05T15:42:42.115Z,10.8
2019-04-05T15:43:54.304Z,10.6
2019-04-05T15:45:06.498Z,9.3
2019-04-05T15:46:18.690Z,11.9
2019-04-05T15:47:30.920Z,9
2019-04-05T15:48:43.000Z,9.7
2019-04-05T15:51:07.470Z,11.7
2019-04-05T15:52:19.665Z,10.9
2019-04-05T15:53:31.877Z,11.8
2019-04-05T15:54:44.063Z,10.4
2019-04-05T15:55:56.251Z,9.3
2019-04-05T15:57:08.448Z,10.6
2019-04-05T15:58:20.658Z,12.9
2019-04-05T15:59:32.838Z,10.8
2019-04-05T16:00:45.038Z,11.9
2019-04-05T16:01:57.240Z,9.6
2019-04-05T16:03:09.000Z,9.2
2019-04-05T16:04:21.618Z,10.1
2019-04-05T16:05:33.817Z,10
2019-04-05T16:06:46.055Z,12.8
2019-04-05T16:07:58.213Z,10.2
2019-04-05T16:09:10.403Z,11.6
2019-04-05T16:10:22.601Z,9.4
2019-04-05T16:11:34.787Z,11.7
2019-04-05T16:12:46.993Z,9.4
2019-04-05T16:13:59.185Z,11.6
2019-04-05T16:15:11.383Z,10.6
2019-04-05T16:17:35.000Z,8.5
2019-04-05T16:18:47.974Z,10.9
2019-04-05T16:20:00.167Z,12
2019-04-05T16:21:12.000Z,10.1
2019-04-05T16:22:24.561Z,10.2
2019-04-05T16:23:36.745Z,10.8
2019-04-05T16:26:01.140Z,10.8
2019-04-05T16:27:13.366Z,10.3
2019-04-05T16:28:25.529Z,11.9
2019-04-05T16:29:37.726Z,11.7
2019-04-05T16:30:49.913Z,10.1
2019-04-05T16:32:02.011Z,10.3
2019-04-05T16:33:14.303Z,10.2
2019-04-05T16:34:26.501Z,9.9
2019-04-05T16:35:38.069Z,9.3
2019-04-05T16:36:50.904Z,9.6
2019-04-05T16:38:03.085Z,10.3
2019-04-05T16:39:15.276Z,10.7
2019-04-05T16:40:27.480Z,12
2019-04-05T16:41:39.676Z,9.6
2019-04-05T16:42:51.865Z,10.9
2019-04-05T16:44:04.069Z,9.2
2019-04-05T16:45:16.261Z,9.9
2019-04-05T16:46:28.000Z,12.6
2019-04-05T16:47:40.654Z,9.3
2019-04-05T16:48:52.847Z,8.6
2019-04-05T16:51:17.231Z,8.9
2019-04-05T16:52:29.000Z,11.5
2019-04-05T16:53:41.000Z,10.4
2019-04-05T16:54:53.818Z,10.3
2019-04-05T16:56:06.115Z,12.6
2019-04-05T16:57:18.020Z,12.9
2019-04-05T16:58:30.402Z,8.9
2019-04-05T16:59:42.606Z,9.4
2019-04-05T17:00:54.796Z,10.7
2019-04-05T17:03:19.192Z,8
2019-04-05T17:04:31.386Z,11.9
2019-04-05T17:05:43.575Z,8.9
2019-04-05T17:06:55.775Z,9.9
2019-04-05T17:08:07.000Z,9.4
2019-04-05T17:09:20.000Z,9.1
2019-04-05T17:10:32.369Z,8.9
2019-04-05T17:11:44.055Z,10.6
2019-04-05T17:12:56.074Z,8.5
2019-04-05T17:15:21.013Z,11.1
2019-04-05T17:16:33.033Z,10.3
2019-04-05T17:17:45.529Z,9.6
2019-04-05T17:18:57.720Z,11
2019-04-05T17:20:09.912Z,11.2
2019-04-05T17:21:22.104Z,9.8